ADDS METAR Data INFO
IDs: Format: Raw Decoded Include TAF

Data at: 0837 UTC 27 Jun 2017

KU68 270835Z AUTO 30014G19KT 10SM CLR 17/01 A2982 RMK AO2
KU68 270815Z AUTO 00000KT 10SM CLR 19/00 A2980 RMK AO2
KU68 270755Z AUTO 00000KT 10SM CLR 20/00 A2980 RMK AO2
KU68 270735Z AUTO 04004KT 10SM CLR 20/M01 A2980 RMK AO2
KU68 270715Z AUTO 04006KT 10SM CLR 20/M02 A2980 RMK AO2
KU68 270655Z AUTO 04005KT 10SM CLR 20/M02 A2980 RMK AO2
KU68 270635Z AUTO 03004KT 10SM CLR 22/M02 A2980 RMK AO2
KU68 270615Z AUTO 31003KT 10SM CLR 21/M01 A2981 RMK AO2
KU68 270555Z AUTO 00000KT 10SM CLR 22/M02 A2981 RMK AO2
KU68 270535Z AUTO 11007KT 10SM CLR 23/M03 A2981 RMK AO2
KU68 270515Z AUTO 00000KT 10SM CLR 24/M02 A2981 RMK AO2
KU68 270455Z AUTO 00000KT 10SM CLR 25/M02 A2982 RMK AO2
KU68 270435Z AUTO 03004KT 10SM CLR 26/M02 A2981 RMK AO2
KU68 270415Z AUTO 02005KT 10SM CLR 26/M02 A2982 RMK AO2
KU68 270355Z AUTO 07005KT 10SM CLR 27/M02 A2982 RMK AO2
KU68 270335Z AUTO 05005KT 10SM CLR 28/M03 A2982 RMK AO2
KU68 270315Z AUTO 00000KT 10SM CLR 27/M05 A2982 RMK AO2
KU68 270255Z AUTO 06004KT 10SM CLR 28/M04 A2983 RMK AO2
KU68 270235Z AUTO 12004KT 10SM CLR 30/M04 A2983 RMK AO2
KU68 270215Z AUTO 13007KT 10SM CLR 30/M03 A2984 RMK AO2
KU68 270155Z AUTO 12007KT 10SM CLR 31/M02 A2985 RMK AO2
KU68 270135Z AUTO 11007KT 10SM CLR 32/M03 A2986 RMK AO2
KU68 270115Z AUTO 13007KT 10SM CLR 32/M03 A2986 RMK AO2
KU68 270055Z AUTO 16011KT 10SM CLR 33/M03 A2987 RMK AO2
KU68 270035Z AUTO 15013KT 10SM CLR 34/M02 A2988 RMK AO2
KU68 270015Z AUTO 15011G15KT 10SM CLR 34/M02 A2988 RMK AO2
KU68 262355Z AUTO 15011G20KT 10SM CLR 34/M02 A2989 RMK AO2 LTG DSNT W
KU68 262335Z AUTO 16008KT 10SM CLR 34/M03 A2990 RMK AO2
KU68 262315Z AUTO 16010G19KT 10SM CLR 34/M02 A2992 RMK AO2
KU68 262255Z AUTO 12009G19KT 10SM CLR 34/M02 A2992 RMK AO2
KU68 262235Z AUTO 15009G15KT 10SM CLR 33/M02 A2994 RMK AO2
KU68 262215Z AUTO 14013G16KT 10SM CLR 34/M02 A2994 RMK AO2
KU68 262155Z AUTO 15010G16KT 10SM CLR 33/M01 A2996 RMK AO2
KU68 262135Z AUTO 12011G15KT 10SM CLR 33/M01 A2997 RMK AO2
KU68 262115Z AUTO 16008G14KT 10SM CLR 33/M01 A2998 RMK AO2
KU68 262055Z AUTO 12005G14KT 10SM CLR 32/M01 A2999 RMK AO2
KU68 262035Z AUTO 14008G14KT 10SM CLR 32/00 A3001 RMK AO2
KU68 262015Z AUTO 17005KT 10SM CLR 31/00 A3002 RMK AO2
KU68 261955Z AUTO 14006KT 10SM CLR 31/00 A3003 RMK AO2
KU68 261935Z AUTO 15008G14KT 10SM CLR 31/00 A3004 RMK AO2
KU68 261915Z AUTO 12006G16KT 10SM CLR 30/00 A3006 RMK AO2
KU68 261855Z AUTO 17006G14KT 10SM CLR 30/00 A3007 RMK AO2
KU68 261835Z AUTO 13009KT 10SM CLR 28/00 A3008 RMK AO2
KU68 261815Z AUTO 14010G16KT 10SM CLR 28/01 A3009 RMK AO2
KU68 261755Z AUTO 12008KT 10SM CLR 27/01 A3010 RMK AO2
KU68 261735Z AUTO 12009KT 10SM CLR 27/02 A3012 RMK AO2
KU68 261715Z AUTO 11007KT 10SM CLR 26/02 A3012 RMK AO2
KU68 261655Z AUTO 15004KT 10SM CLR 25/02 A3013 RMK AO2
KU68 261635Z AUTO 00000KT 10SM CLR 24/02 A3014 RMK AO2
KU68 261615Z AUTO 09003KT 10SM CLR 23/02 A3015 RMK AO2
KU68 261555Z AUTO 09004KT 10SM CLR 23/02 A3016 RMK AO2
KU68 261535Z AUTO 12004KT 10SM CLR 22/01 A3017 RMK AO2
KU68 261515Z AUTO 11003KT 10SM CLR 21/01 A3018 RMK AO2
KU68 261455Z AUTO 00000KT 10SM CLR 20/02 A3018 RMK AO2
KU68 261435Z AUTO 10SM CLR 20/02 A3018 RMK AO2
KU68 261415Z AUTO 10SM CLR 19/01 A3019 RMK AO2
KU68 261355Z AUTO 10SM CLR 17/01 A3019 RMK AO2
KU68 261335Z AUTO 10SM CLR 16/02 A3020 RMK AO2
KU68 261315Z AUTO 10SM CLR 15/02 A3020 RMK AO2
KU68 261255Z AUTO 10SM CLR 15/02 A3020 RMK AO2
KU68 261235Z AUTO 10SM CLR 14/01 A3020 RMK AO2
KU68 261215Z AUTO 10SM CLR 13/01 A3019 RMK AO2
KU68 261155Z AUTO 04003KT 10SM CLR 12/00 A3020 RMK AO2
KU68 261135Z AUTO 10SM CLR 11/00 A3019 RMK AO2
KU68 261115Z AUTO 08003KT 10SM CLR 11/00 A3019 RMK AO2
KU68 261055Z AUTO 04004KT 10SM CLR 11/00 A3019 RMK AO2
KU68 261035Z AUTO 04006KT 10SM CLR 11/00 A3019 RMK AO2
KU68 261015Z AUTO 04004KT 10SM CLR 11/00 A3020 RMK AO2
KU68 260955Z AUTO 12003KT 10SM CLR 11/01 A3020 RMK AO2
KU68 260935Z AUTO 15004KT 10SM CLR 10/01 A3020 RMK AO2
KU68 260915Z AUTO 14003KT 10SM CLR 12/00 A3020 RMK AO2
KU68 260855Z AUTO 35003KT 10SM CLR 14/00 A3020 RMK AO2
KU68 260835Z AUTO 34003KT 10SM CLR 13/00 A3020 RMK AO2
KU68 260815Z AUTO 30003KT 10SM CLR 13/00 A3020 RMK AO2
KU68 260755Z AUTO 29004KT 10SM CLR 13/00 A3021 RMK AO2
KU68 260735Z AUTO 30004KT 10SM CLR 15/00 A3021 RMK AO2
KU68 260715Z AUTO 10SM CLR 15/00 A3021 RMK AO2
KU68 260655Z AUTO 29005KT 10SM CLR 15/00 A3021 RMK AO2
KU68 260635Z AUTO 31006KT 10SM CLR 16/00 A3021 RMK AO2
KU68 260615Z AUTO 26004KT 10SM CLR 16/00 A3022 RMK AO2
KU68 260555Z AUTO 04005KT 10SM CLR 17/00 A3021 RMK AO2
KU68 260535Z AUTO 05006KT 10SM CLR 18/00 A3021 RMK AO2
KU68 260515Z AUTO 02004KT 10SM CLR 18/00 A3022 RMK AO2
KU68 260455Z AUTO 01004KT 10SM CLR 19/00 A3022 RMK AO2
KU68 260435Z AUTO 01006KT 10SM CLR 20/00 A3022 RMK AO2
KU68 260415Z AUTO 02006KT 10SM CLR 20/00 A3022 RMK AO2
KU68 260355Z AUTO 01006KT 10SM CLR 20/00 A3022 RMK AO2
KU68 260335Z AUTO 02008KT 10SM CLR 21/00 A3022 RMK AO2
KU68 260315Z AUTO 04008KT 10SM CLR 22/00 A3021 RMK AO2
KU68 260255Z AUTO 04012G15KT 10SM CLR 23/M01 A3021 RMK AO2
KU68 260235Z AUTO 04012G19KT 10SM CLR 23/M01 A3022 RMK AO2
KU68 260215Z AUTO 04014G19KT 10SM CLR 24/M01 A3022 RMK AO2
KU68 260155Z AUTO 04015G19KT 10SM CLR 25/M01 A3022 RMK AO2
KU68 260135Z AUTO 04016G21KT 10SM CLR 25/M01 A3021 RMK AO2
KU68 260115Z AUTO 05017G25KT 10SM CLR 26/M01 A3021 RMK AO2
KU68 260055Z AUTO 04014G18KT 10SM CLR 26/M01 A3021 RMK AO2
KU68 260035Z AUTO 04017G23KT 10SM CLR 26/M01 A3021 RMK AO2
KU68 260015Z AUTO 06017KT 10SM CLR 26/M01 A3021 RMK AO2
KU68 252355Z AUTO 05016G21KT 10SM CLR 27/M01 A3022 RMK AO2
KU68 252335Z AUTO 05012G18KT 10SM CLR 27/M01 A3022 RMK AO2
KU68 252315Z AUTO 04010G19KT 10SM CLR 27/M01 A3023 RMK AO2
KU68 252255Z AUTO 03015KT 024V084 10SM CLR 27/00 A3023 RMK AO2
KU68 252235Z AUTO 02009G16KT 10SM CLR 27/00 A3024 RMK AO2
KU68 252215Z AUTO 05009G16KT 10SM CLR 27/00 A3024 RMK AO2
KU68 252155Z AUTO 00000KT 10SM CLR 27/00 A3024 RMK AO2
KU68 252135Z AUTO 00000KT 10SM CLR 26/00 A3024 RMK AO2
KU68 252115Z AUTO 30004KT 10SM CLR 26/00 A3025 RMK AO2
KU68 252055Z AUTO 00000KT 10SM CLR 26/00 A3026 RMK AO2


Page loaded:  08:37 UTC  |   01:37 AM Pacific  |   02:37 AM Mountain  |   03:37 AM Central  |   04:37 AM Eastern

 

ADVISORIES

FORECASTS

FORECASTS

OBSERVATIONS

USER TOOLS

ABOUT US